Time;durP1;ratioP1;P1;durP2;ratioP2;P2;SDS_P1;SDS_P2;PMS_P1;PMS_P2;Temp;Humidity;BMP_temperature;BMP_pressure;BME280_temperature;BME280_humidity;BME280_pressure;Samples;Min_cycle;Max_cycle;Signal;HPM_P1;HPM_P2
2022/08/28 00:01:06;;;;;;;4.32;3.92;;;;;;;21.38;44.34;93724.22;4973053;28;20014;-80
2022/08/28 00:03:32;;;;;;;14.43;4.40;;;;;;;21.39;44.47;93738.53;4973908;28;20097;-80
2022/08/28 00:05:59;;;;;;;8.75;4.28;;;;;;;21.39;44.79;93736.59;4972322;28;20809;-80
2022/08/28 00:08:25;;;;;;;8.68;4.35;;;;;;;21.25;44.69;93706.03;4952856;28;20031;-81
2022/08/28 00:10:51;;;;;;;7.43;4.75;;;;;;;21.31;44.57;93724.22;4963784;28;20378;-79
2022/08/28 00:13:19;;;;;;;7.57;4.40;;;;;;;21.32;44.64;93725.75;4972196;28;20080;-81
2022/08/28 00:15:47;;;;;;;8.60;4.00;;;;;;;21.20;44.75;93723.41;4972369;28;20080;-80
2022/08/28 00:18:13;;;;;;;8.95;4.35;;;;;;;21.24;44.91;93729.59;4961845;28;20438;-80
2022/08/28 00:20:38;;;;;;;8.88;4.03;;;;;;;21.26;44.95;93729.22;4972470;28;20030;-80
2022/08/28 00:23:05;;;;;;;5.10;3.83;;;;;;;21.07;44.96;93703.25;4972696;28;20565;-82
2022/08/28 00:25:32;;;;;;;8.85;3.90;;;;;;;21.30;44.94;93740.81;4957341;28;20439;-80
2022/08/28 00:28:01;;;;;;;7.00;4.20;;;;;;;21.11;44.77;93708.69;4972137;28;20037;-80
2022/08/28 00:30:42;;;;;;;5.32;4.15;;;;;;;21.32;45.09;93741.19;4971056;28;20061;-82
2022/08/28 00:33:16;;;;;;;5.97;4.38;;;;;;;21.33;45.01;93737.34;4970546;28;20116;-81
2022/08/28 00:35:42;;;;;;;4.93;3.35;;;;;;;21.16;44.90;93719.91;4955554;28;20023;-82
2022/08/28 00:38:09;;;;;;;8.90;4.40;;;;;;;21.14;44.75;93714.09;4972188;28;20030;-81
2022/08/28 00:40:35;;;;;;;10.63;4.88;;;;;;;21.28;44.52;93735.78;4971522;28;20120;-80
2022/08/28 00:43:02;;;;;;;8.82;4.53;;;;;;;21.12;44.83;93727.22;4970959;28;20019;-81
2022/08/28 00:45:29;;;;;;;5.75;4.45;;;;;;;21.07;45.27;93732.25;4954224;28;20026;-81
2022/08/28 00:47:55;;;;;;;6.32;4.70;;;;;;;21.02;45.36;93736.84;4955586;28;20570;-81
2022/08/28 00:52:04;;;;;;;8.52;4.10;;;;;;;21.05;45.51;93738.03;4954536;28;20037;-79
2022/08/28 00:53:16;;;;;;;6.45;3.45;;;;;;;21.06;45.55;93744.22;4972012;28;20066;-81
2022/08/28 00:55:42;;;;;;;5.18;3.53;;;;;;;20.84;45.48;93718.97;4961875;28;20140;-81
2022/08/28 00:58:10;;;;;;;7.10;4.28;;;;;;;20.91;45.60;93735.28;4971430;28;20081;-79
2022/08/28 01:00:37;;;;;;;6.05;3.95;;;;;;;20.97;45.69;93741.88;4971297;28;20069;-80
2022/08/28 01:03:04;;;;;;;9.73;4.40;;;;;;;20.70;45.70;93716.22;4971351;28;20039;-81
2022/08/28 01:05:30;;;;;;;9.93;4.50;;;;;;;20.88;45.99;93744.13;4972502;28;20118;-78
2022/08/28 01:07:58;;;;;;;7.63;4.00;;;;;;;20.66;45.85;93712.72;4970355;28;20482;-79
2022/08/28 01:10:26;;;;;;;8.40;4.78;;;;;;;20.72;45.90;93732.84;4960079;28;20393;-80
2022/08/28 01:12:55;;;;;;;7.85;4.40;;;;;;;20.68;45.93;93726.66;4961638;28;20494;-80
2022/08/28 01:15:25;;;;;;;10.13;4.55;;;;;;;20.83;46.11;93741.75;4972379;28;20029;-80
2022/08/28 01:17:55;;;;;;;6.93;3.97;;;;;;;20.77;46.05;93727.84;4972456;28;20022;-80
2022/08/28 01:20:25;;;;;;;8.80;5.13;;;;;;;20.39;46.11;93667.06;4953230;28;20061;-81
2022/08/28 01:23:04;;;;;;;10.60;4.88;;;;;;;20.57;46.15;93689.53;4971186;28;20054;-79
2022/08/28 01:25:33;;;;;;;8.20;3.83;;;;;;;20.51;46.28;93685.66;4953726;28;20019;-79
2022/08/28 01:28:00;;;;;;;10.50;4.30;;;;;;;20.79;46.42;93722.06;4971097;28;20030;-80
2022/08/28 01:30:27;;;;;;;11.20;4.80;;;;;;;20.84;46.28;93740.59;4969887;28;20022;-83
2022/08/28 01:32:55;;;;;;;8.43;3.88;;;;;;;20.81;46.23;93744.84;4971692;28;20147;-81
2022/08/28 01:35:26;;;;;;;7.40;4.00;;;;;;;20.76;46.45;93747.13;4972465;28;20023;-81
2022/08/28 01:37:52;;;;;;;8.88;4.55;;;;;;;20.68;46.84;93740.16;4970578;28;20560;-82
2022/08/28 01:40:24;;;;;;;8.05;4.45;;;;;;;20.63;47.06;93740.53;4971173;28;20037;-82
2022/08/28 01:42:49;;;;;;;5.10;4.10;;;;;;;20.37;46.71;93714.50;4969714;28;20030;-82
2022/08/28 01:45:16;;;;;;;7.40;5.05;;;;;;;20.27;47.03;93705.19;4969876;28;20034;-81
2022/08/28 01:47:44;;;;;;;6.97;4.15;;;;;;;20.51;47.26;93755.88;4970008;28;20019;-82
2022/08/28 01:50:13;;;;;;;8.80;4.65;;;;;;;20.36;47.21;93740.75;4969985;28;20030;-80
2022/08/28 01:52:39;;;;;;;6.90;4.72;;;;;;;20.48;47.17;93753.16;4960615;28;20034;-82
2022/08/28 01:55:06;;;;;;;9.60;5.40;;;;;;;20.49;47.28;93750.06;4970216;28;20097;-82
2022/08/28 01:57:32;;;;;;;7.90;4.30;;;;;;;20.37;46.95;93726.09;4971596;28;20028;-80
2022/08/28 01:59:58;;;;;;;7.05;5.35;;;;;;;20.07;47.23;93684.97;4970140;28;20033;-81
2022/08/28 02:02:24;;;;;;;8.65;4.25;;;;;;;20.19;47.02;93700.13;4969619;28;20038;-82
2022/08/28 02:04:51;;;;;;;7.32;4.45;;;;;;;20.35;46.70;93717.56;4969201;28;20083;-81
2022/08/28 02:07:16;;;;;;;9.68;5.03;;;;;;;20.48;46.86;93737.72;4970262;28;20620;-81
2022/08/28 02:09:42;;;;;;;7.82;4.60;;;;;;;20.52;47.04;93748.56;4971143;28;20045;-80
2022/08/28 02:12:09;;;;;;;7.00;4.60;;;;;;;20.19;47.28;93706.28;4970703;28;20030;-82
2022/08/28 02:14:34;;;;;;;6.28;3.97;;;;;;;20.36;47.36;93740.75;4971050;28;20050;-82
2022/08/28 02:17:00;;;;;;;6.18;4.18;;;;;;;20.22;47.37;93721.75;4971434;28;20113;-82
2022/08/28 02:19:25;;;;;;;13.13;5.50;;;;;;;20.32;47.63;93745.34;4959981;28;20018;-81
2022/08/28 02:21:51;;;;;;;7.20;4.43;;;;;;;20.05;47.68;93708.84;4973916;28;20178;-81
2022/08/28 02:24:16;;;;;;;6.30;4.43;;;;;;;19.75;47.89;93663.91;4959359;28;20398;-80
2022/08/28 02:26:43;;;;;;;15.05;5.10;;;;;;;20.22;47.92;93748.75;4974523;28;20030;-80
2022/08/28 02:29:09;;;;;;;12.40;5.88;;;;;;;20.07;47.89;93728.94;4974793;28;20029;-79
2022/08/28 02:31:35;;;;;;;5.72;4.70;;;;;;;19.90;48.23;93707.97;4976167;28;20023;-80
2022/08/28 02:34:00;;;;;;;9.32;4.78;;;;;;;19.99;48.01;93710.38;4963431;28;20737;-80
2022/08/28 02:36:28;;;;;;;8.00;5.25;;;;;;;19.66;47.97;93666.16;4974434;28;20050;-80
2022/08/28 02:38:53;;;;;;;10.02;4.55;;;;;;;20.23;48.01;93750.31;4975292;28;20029;-80
2022/08/28 02:41:19;;;;;;;8.77;4.85;;;;;;;19.92;47.90;93708.38;4973753;28;21000;-81
2022/08/28 02:43:45;;;;;;;11.30;4.80;;;;;;;20.17;48.03;93755.28;4957784;28;20049;-81
2022/08/28 02:46:11;;;;;;;6.20;4.60;;;;;;;19.89;48.06;93719.94;4973155;28;20695;-81
2022/08/28 02:48:38;;;;;;;6.30;4.53;;;;;;;20.05;48.26;93746.66;4975968;28;20027;-81
2022/08/28 02:51:07;;;;;;;7.30;5.68;;;;;;;20.06;48.30;93745.50;4973723;28;20037;-81
2022/08/28 02:53:34;;;;;;;7.90;4.90;;;;;;;19.81;48.52;93720.22;4974380;28;20435;-80
2022/08/28 02:56:01;;;;;;;9.43;5.57;;;;;;;20.05;48.61;93762.84;4961631;28;20930;-80
2022/08/28 02:58:28;;;;;;;7.82;4.63;;;;;;;19.80;48.70;93729.50;4962728;28;20057;-80
2022/08/28 03:00:55;;;;;;;7.07;5.18;;;;;;;19.87;48.98;93743.03;4973925;28;20029;-81
2022/08/28 03:03:21;;;;;;;8.07;4.15;;;;;;;20.01;48.71;93764.75;4972897;28;20068;-81
2022/08/28 03:05:46;;;;;;;7.50;4.65;;;;;;;19.91;48.77;93752.72;4972305;28;20019;-81
2022/08/28 03:08:12;;;;;;;9.32;4.07;;;;;;;19.73;48.60;93720.19;4972212;28;20054;-81
2022/08/28 03:10:37;;;;;;;7.32;3.97;;;;;;;19.73;48.74;93730.97;4972933;28;20117;-83
2022/08/28 03:13:03;;;;;;;10.27;4.68;;;;;;;19.73;48.88;93741.78;4974134;28;20168;-82
2022/08/28 03:15:29;;;;;;;9.88;4.53;;;;;;;19.81;48.75;93737.22;4971780;28;20021;-79
2022/08/28 03:17:54;;;;;;;9.38;4.28;;;;;;;19.70;48.85;93726.31;4973331;28;20030;-82
2022/08/28 03:20:20;;;;;;;8.13;4.40;;;;;;;19.99;48.93;93761.66;4954995;28;20034;-81
2022/08/28 03:25:29;;;;;;;7.32;4.97;;;;;;;19.37;49.00;93674.34;4972292;28;20038;-80
2022/08/28 03:27:55;;;;;;;10.65;4.40;;;;;;;19.83;49.06;93744.94;4972204;28;20022;-81
2022/08/28 03:30:21;;;;;;;4.68;3.85;;;;;;;19.86;49.07;93754.97;4961478;28;20514;-82
2022/08/28 03:32:47;;;;;;;10.00;4.85;;;;;;;19.80;49.07;93748.41;4973121;28;20081;-82
2022/08/28 03:35:13;;;;;;;8.45;3.90;;;;;;;19.85;49.12;93758.84;4974913;28;20105;-80
2022/08/28 03:37:38;;;;;;;5.82;4.35;;;;;;;19.86;48.94;93760.38;4973969;28;20499;-81
2022/08/28 03:40:06;;;;;;;8.43;4.07;;;;;;;19.88;49.12;93764.25;4956013;28;20065;-81
2022/08/28 03:42:32;;;;;;;10.50;3.75;;;;;;;19.80;48.85;93751.09;4972867;28;20128;-81
2022/08/28 03:44:57;;;;;;;7.72;4.72;;;;;;;19.86;48.97;93771.16;4973574;28;20558;-81
2022/08/28 03:47:23;;;;;;;6.97;4.13;;;;;;;19.85;49.17;93775.03;4972830;28;20097;-81
2022/08/28 03:49:58;;;;;;;4.65;3.75;;;;;;;19.76;48.83;93761.84;4973625;28;20103;-81
2022/08/28 03:52:24;;;;;;;7.03;4.75;;;;;;;19.51;48.90;93740.00;4971714;28;20040;-80
2022/08/28 03:54:50;;;;;;;5.15;4.32;;;;;;;19.75;48.78;93787.25;4963099;28;20399;-82
2022/08/28 03:57:20;;;;;;;5.65;4.20;;;;;;;19.53;49.09;93763.94;4972575;28;20056;-80
2022/08/28 03:59:51;;;;;;;7.22;4.05;;;;;;;19.68;49.20;93789.91;4971648;28;20088;-80
2022/08/28 04:02:19;;;;;;;7.68;4.50;;;;;;;19.59;49.55;93779.41;4972682;28;20049;-80
2022/08/28 04:04:45;;;;;;;6.30;4.45;;;;;;;19.63;49.24;93777.53;4973257;28;20042;-81
2022/08/28 04:07:11;;;;;;;8.45;5.80;;;;;;;19.64;49.46;93797.19;4956521;28;20862;-80
2022/08/28 04:09:37;;;;;;;8.65;4.55;;;;;;;19.52;49.72;93786.66;4972123;28;20026;-80
2022/08/28 04:12:03;;;;;;;9.05;4.55;;;;;;;19.59;50.04;93795.59;4972277;28;20049;-82
2022/08/28 04:14:28;;;;;;;11.02;4.25;;;;;;;19.46;49.82;93788.13;4970018;28;20027;-81
2022/08/28 04:16:54;;;;;;;6.97;3.85;;;;;;;19.49;50.21;93793.56;4971834;28;20165;-82
2022/08/28 04:19:20;;;;;;;9.13;4.13;;;;;;;19.48;50.25;93792.00;4972451;28;20803;-79
2022/08/28 04:21:46;;;;;;;7.60;4.28;;;;;;;19.66;50.21;93811.84;4973527;28;20034;-82
2022/08/28 04:24:12;;;;;;;12.40;5.65;;;;;;;19.69;50.31;93811.13;4972969;28;20052;-80
2022/08/28 04:26:38;;;;;;;7.22;4.85;;;;;;;19.48;50.18;93781.22;4971463;28;20121;-79
2022/08/28 04:29:05;;;;;;;10.48;4.45;;;;;;;19.75;50.03;93815.00;4973721;28;20536;-81
2022/08/28 04:31:31;;;;;;;5.03;4.50;;;;;;;19.70;50.47;93806.50;4973093;28;20026;-80
2022/08/28 04:33:58;;;;;;;6.28;4.40;;;;;;;19.65;50.37;93791.41;4973227;28;20072;-79
2022/08/28 04:36:23;;;;;;;8.05;3.83;;;;;;;19.85;50.45;93824.38;4972409;28;20026;-80
2022/08/28 04:38:49;;;;;;;7.13;4.72;;;;;;;19.66;50.58;93784.88;4972882;28;20449;-81
2022/08/28 04:41:16;;;;;;;11.05;5.13;;;;;;;19.98;51.00;93817.56;4970316;28;20531;-80
2022/08/28 04:43:42;;;;;;;7.43;4.10;;;;;;;19.94;50.99;93789.78;4973120;28;20594;-80
2022/08/28 04:46:10;;;;;;;8.93;3.75;;;;;;;20.06;51.00;93807.59;4970788;28;20031;-80
2022/08/28 04:48:37;;;;;;;5.63;4.57;;;;;;;20.23;50.58;93825.91;4972548;28;20030;-79
2022/08/28 04:51:08;;;;;;;7.18;5.05;;;;;;;20.35;50.25;93831.00;4971411;28;20037;-81
2022/08/28 04:53:35;;;;;;;7.93;4.93;;;;;;;20.42;49.71;93830.31;4961665;28;20023;-80
2022/08/28 04:56:03;;;;;;;11.05;6.43;;;;;;;20.44;49.45;93828.75;4971627;28;20033;-79
2022/08/28 04:58:29;;;;;;;9.23;5.75;;;;;;;20.51;48.90;93818.03;4970729;28;20038;-81
2022/08/28 05:00:55;;;;;;;7.30;5.07;;;;;;;20.44;48.64;93801.75;4956100;28;20030;-80
2022/08/28 05:03:21;;;;;;;8.05;5.78;;;;;;;20.57;48.78;93826.56;4970373;28;20093;-80
2022/08/28 05:05:49;;;;;;;8.35;5.30;;;;;;;20.53;49.12;93812.25;4972855;28;20088;-80
2022/08/28 05:08:17;;;;;;;7.30;5.45;;;;;;;20.57;48.59;93838.13;4961244;28;20022;-79
2022/08/28 05:10:43;;;;;;;8.68;5.55;;;;;;;20.34;48.96;93807.84;4971112;28;20023;-81
2022/08/28 05:13:10;;;;;;;9.50;6.05;;;;;;;20.62;48.84;93834.31;4971123;28;20138;-80
2022/08/28 05:15:44;;;;;;;9.45;6.10;;;;;;;20.75;48.92;93835.53;4971347;28;20121;-81
2022/08/28 05:18:14;;;;;;;13.85;8.23;;;;;;;20.57;48.08;93803.03;4971381;28;20037;-79
2022/08/28 05:20:43;;;;;;;8.68;5.65;;;;;;;20.78;48.33;93840.19;4970765;28;20035;-78
2022/08/28 05:23:09;;;;;;;9.05;6.65;;;;;;;20.85;48.46;93842.94;4960171;28;20034;-80
2022/08/28 05:25:41;;;;;;;13.00;6.68;;;;;;;20.89;48.43;93840.28;4970237;28;20165;-80
2022/08/28 05:28:08;;;;;;;6.78;5.90;;;;;;;20.97;48.51;93844.59;4972132;28;20141;-79
2022/08/28 05:30:36;;;;;;;10.23;7.07;;;;;;;20.98;47.65;93832.59;4970525;28;20015;-81
2022/08/28 05:33:02;;;;;;;16.83;6.53;;;;;;;21.02;47.86;93842.28;4953436;28;20126;-80
2022/08/28 05:35:28;;;;;;;10.75;6.40;;;;;;;21.02;48.30;93831.47;4970226;28;20080;-81
2022/08/28 05:37:54;;;;;;;10.60;6.43;;;;;;;21.26;47.95;93854.41;4971610;28;20342;-80
2022/08/28 05:40:21;;;;;;;8.98;6.47;;;;;;;21.32;48.06;93842.06;4971622;28;20585;-79
2022/08/28 05:42:48;;;;;;;7.50;5.57;;;;;;;21.39;47.72;93847.50;4970333;28;20026;-79
2022/08/28 05:45:13;;;;;;;9.82;6.75;;;;;;;21.39;47.72;93839.38;4971219;28;20721;-78
2022/08/28 05:47:39;;;;;;;10.68;6.97;;;;;;;21.61;46.88;93861.16;4970947;28;20030;-79
2022/08/28 05:50:07;;;;;;;10.82;6.15;;;;;;;20.97;47.43;93752.69;4971038;28;20041;-81
2022/08/28 05:52:33;;;;;;;12.95;6.38;;;;;;;21.40;47.35;93832.84;4968704;28;20023;-80
2022/08/28 05:54:59;;;;;;;10.45;6.20;;;;;;;21.39;47.12;93838.63;4970328;28;20101;-81
2022/08/28 05:57:25;;;;;;;9.70;7.07;;;;;;;21.45;47.46;93842.50;4971925;28;21372;-81
2022/08/28 05:59:50;;;;;;;8.63;6.75;;;;;;;21.49;47.07;93834.41;4970456;28;21044;-79
2022/08/28 06:02:16;;;;;;;11.45;6.45;;;;;;;21.74;47.54;93862.34;4970600;28;20026;-79
2022/08/28 06:04:41;;;;;;;9.18;6.35;;;;;;;21.87;47.21;93858.13;4971706;28;20440;-81
2022/08/28 06:07:08;;;;;;;19.17;7.60;;;;;;;21.79;47.04;93848.44;4972377;28;20090;-81
2022/08/28 06:09:33;;;;;;;10.60;6.90;;;;;;;21.76;47.51;93857.31;4956112;28;20085;-80
2022/08/28 06:12:00;;;;;;;10.05;6.68;;;;;;;21.88;48.20;93848.84;4968398;28;20030;-79
2022/08/28 06:14:26;;;;;;;9.02;6.60;;;;;;;22.05;47.73;93864.34;4972021;28;20056;-79
2022/08/28 06:16:54;;;;;;;9.95;6.80;;;;;;;21.92;46.78;93819.84;4969673;28;20992;-78
2022/08/28 06:19:21;;;;;;;9.48;6.45;;;;;;;22.11;47.32;93857.41;4969755;28;20114;-79
2022/08/28 06:21:51;;;;;;;14.02;8.13;;;;;;;22.22;47.58;93852.81;4958914;28;20026;-81
2022/08/28 06:24:17;;;;;;;8.98;6.03;;;;;;;22.38;47.21;93852.44;4970159;28;20076;-79
2022/08/28 06:26:43;;;;;;;11.45;5.93;;;;;;;22.53;45.81;93847.78;4970354;28;20034;-81
2022/08/28 06:29:12;;;;;;;9.75;6.70;;;;;;;22.42;45.67;93815.28;4969494;28;20030;-81
2022/08/28 06:31:38;;;;;;;7.88;5.75;;;;;;;22.61;45.46;93841.19;4971874;28;20094;-80
2022/08/28 06:34:04;;;;;;;9.52;6.22;;;;;;;22.66;45.61;93832.66;4967730;28;20538;-78
2022/08/28 06:36:31;;;;;;;10.32;6.70;;;;;;;22.88;45.39;93866.75;4971280;28;20033;-80
2022/08/28 06:38:58;;;;;;;12.07;6.72;;;;;;;22.73;45.04;93859.78;4968461;28;20030;-79
2022/08/28 06:41:26;;;;;;;8.60;6.13;;;;;;;22.69;45.10;93848.16;4969698;28;20035;-81
2022/08/28 06:43:51;;;;;;;8.18;5.50;;;;;;;22.72;44.58;93840.03;4971031;28;20517;-81
2022/08/28 06:46:17;;;;;;;13.45;6.28;;;;;;;22.77;44.93;93838.88;4968275;28;20034;-80
2022/08/28 06:48:42;;;;;;;9.52;6.50;;;;;;;22.87;44.53;93835.41;4970692;28;20109;-79
2022/08/28 06:51:11;;;;;;;6.20;5.45;;;;;;;22.99;43.97;93870.22;4970558;28;20072;-81
2022/08/28 06:53:38;;;;;;;7.70;5.75;;;;;;;22.92;44.72;93856.69;4970777;28;20126;-78
2022/08/28 06:56:14;;;;;;;12.55;6.57;;;;;;;22.95;44.63;93864.03;4953810;28;20026;-80
2022/08/28 06:58:41;;;;;;;8.27;5.63;;;;;;;22.81;45.51;93834.19;4972215;28;20046;-80
2022/08/28 07:01:16;;;;;;;7.18;5.63;;;;;;;23.15;44.93;93864.38;4951713;28;20030;-78
2022/08/28 07:03:43;;;;;;;9.73;6.43;;;;;;;23.16;45.47;93852.38;4970561;28;20034;-79
2022/08/28 07:06:10;;;;;;;9.23;5.97;;;;;;;23.39;45.46;93868.19;4972400;28;20170;-79
2022/08/28 07:08:36;;;;;;;9.43;6.53;;;;;;;23.17;44.31;93813.97;4972819;28;20029;-78
2022/08/28 07:11:13;;;;;;;12.02;6.82;;;;;;;23.44;44.88;93852.28;4974180;28;20022;-78
2022/08/28 07:13:40;;;;;;;9.68;6.65;;;;;;;23.50;45.11;93836.41;4973146;28;20525;-81
2022/08/28 07:16:06;;;;;;;12.35;5.68;;;;;;;23.73;44.69;93861.09;4973779;28;20117;-79
2022/08/28 07:18:32;;;;;;;7.70;5.60;;;;;;;23.39;44.84;93803.06;4972542;28;20084;-79
2022/08/28 07:20:59;;;;;;;12.57;6.18;;;;;;;23.71;43.85;93855.28;4973354;28;20383;-81
2022/08/28 07:23:26;;;;;;;7.68;5.70;;;;;;;23.67;44.02;93837.47;4971584;28;20612;-81
2022/08/28 07:25:52;;;;;;;11.70;6.00;;;;;;;23.67;43.85;93840.97;4973312;28;20030;-81
2022/08/28 07:28:17;;;;;;;7.63;5.22;;;;;;;23.56;44.34;93803.00;4972793;28;20028;-78
2022/08/28 07:30:43;;;;;;;10.18;7.10;;;;;;;23.94;43.62;93844.72;4972045;28;20023;-78
2022/08/28 07:33:09;;;;;;;6.78;5.63;;;;;;;23.86;43.05;93831.53;4972723;28;20049;-80
2022/08/28 07:35:34;;;;;;;12.68;6.15;;;;;;;24.08;43.25;93860.16;4974698;28;20010;-78
2022/08/28 07:37:59;;;;;;;11.32;5.60;;;;;;;24.05;42.53;93849.31;4972601;28;20141;-80
2022/08/28 07:40:25;;;;;;;8.23;5.22;;;;;;;23.89;42.27;93831.53;4972741;28;20060;-80
2022/08/28 07:45:34;;;;;;;8.52;5.68;;;;;;;24.08;42.85;93848.50;4972596;28;20037;-80
2022/08/28 07:48:03;;;;;;;10.05;5.25;;;;;;;24.04;42.63;93856.69;4971678;28;20027;-80
2022/08/28 07:50:28;;;;;;;8.27;5.65;;;;;;;24.13;42.80;93856.25;4971804;28;20042;-82
2022/08/28 07:52:54;;;;;;;7.40;5.53;;;;;;;24.00;42.53;93823.34;4971735;28;20041;-80
2022/08/28 07:55:19;;;;;;;7.10;5.38;;;;;;;24.20;41.37;93840.66;4972052;28;20061;-81
2022/08/28 07:57:46;;;;;;;8.77;5.80;;;;;;;24.19;42.16;93835.66;4971942;28;20037;-79
2022/08/28 08:00:12;;;;;;;8.60;5.65;;;;;;;24.26;42.78;93841.03;4970930;28;20026;-82
2022/08/28 08:02:38;;;;;;;8.65;5.85;;;;;;;24.26;42.40;93828.22;4972705;28;20030;-78
2022/08/28 08:05:04;;;;;;;7.45;6.22;;;;;;;24.41;41.47;93837.03;4973297;28;20407;-83
2022/08/28 08:07:29;;;;;;;6.82;5.10;;;;;;;24.39;41.67;93831.25;4974233;28;20029;-78
2022/08/28 08:09:55;;;;;;;8.30;5.20;;;;;;;24.44;40.95;93838.97;4971699;28;20022;-80
2022/08/28 08:12:21;;;;;;;9.98;5.20;;;;;;;24.43;41.46;93835.47;4972137;28;20115;-80
2022/08/28 08:14:48;;;;;;;5.88;4.45;;;;;;;24.54;40.95;93835.38;4971039;28;20210;-81
2022/08/28 08:17:13;;;;;;;6.13;4.70;;;;;;;24.37;40.15;93814.56;4971991;28;20498;-80
2022/08/28 08:19:39;;;;;;;8.82;5.10;;;;;;;24.53;40.74;93836.56;4962639;28;20105;-78
2022/08/28 08:22:05;;;;;;;6.07;4.85;;;;;;;24.37;40.58;93801.75;4955090;28;20084;-82
2022/08/28 08:24:30;;;;;;;8.55;5.28;;;;;;;24.70;39.95;93851.94;4955970;28;20598;-80
2022/08/28 08:27:00;;;;;;;7.07;4.78;;;;;;;24.57;39.99;93841.97;4956144;28;20033;-83
2022/08/28 08:29:32;;;;;;;7.32;4.55;;;;;;;24.71;40.94;93852.72;4972645;28;20026;-83
2022/08/28 08:32:03;;;;;;;8.52;4.60;;;;;;;24.41;40.07;93785.38;4973075;28;20038;-82
2022/08/28 08:34:30;;;;;;;7.30;4.53;;;;;;;24.78;40.03;93839.84;4972751;28;20060;-81
2022/08/28 08:36:55;;;;;;;8.25;4.03;;;;;;;24.76;39.93;93834.06;4973139;28;20399;-80
2022/08/28 08:39:21;;;;;;;6.57;4.93;;;;;;;24.85;39.18;93842.50;4972132;28;20026;-80
2022/08/28 08:41:50;;;;;;;5.75;4.10;;;;;;;24.76;39.26;93828.63;4972422;28;20028;-81
2022/08/28 08:44:39;;;;;;;10.02;4.55;;;;;;;24.81;39.11;93832.84;4971691;28;20097;-82
2022/08/28 08:47:35;;;;;;;13.20;5.28;;;;;;;24.76;39.88;93823.16;4972630;28;20040;-83
2022/08/28 08:50:02;;;;;;;6.50;4.63;;;;;;;24.85;40.20;93847.94;4959689;28;20049;-82
2022/08/28 08:52:42;;;;;;;7.45;5.20;;;;;;;24.91;39.43;93848.28;4962953;28;20398;-83
2022/08/28 08:55:11;;;;;;;6.72;4.75;;;;;;;24.89;40.17;93841.69;4970276;28;20034;-81
2022/08/28 08:57:37;;;;;;;8.52;4.78;;;;;;;24.72;39.39;93822.44;4971786;28;20485;-80
2022/08/28 09:00:07;;;;;;;6.82;4.60;;;;;;;24.83;39.92;93839.41;4954579;28;20054;-81
2022/08/28 09:02:56;;;;;;;5.47;4.50;;;;;;;24.92;40.40;93835.47;4971532;28;20482;-80
2022/08/28 09:05:37;;;;;;;13.35;4.72;;;;;;;24.85;40.97;93841.72;4954698;28;20051;-81
2022/08/28 09:08:03;;;;;;;10.85;5.22;;;;;;;24.70;40.65;93838.34;4972911;28;20030;-83
2022/08/28 09:10:47;;;;;;;11.77;4.55;;;;;;;24.65;40.84;93838.78;4970414;28;20575;-82
2022/08/28 09:13:39;;;;;;;16.45;5.45;;;;;;;24.68;41.21;93838.00;4971101;28;20050;-80
2022/08/28 09:16:15;;;;;;;14.48;5.00;;;;;;;24.78;40.92;93837.13;4957911;28;20022;-81
2022/08/28 09:18:41;;;;;;;13.88;5.38;;;;;;;24.82;40.36;93816.13;4971020;28;20026;-81
2022/08/28 09:21:06;;;;;;;6.90;4.20;;;;;;;24.96;40.25;93819.88;4971748;28;20033;-80
2022/08/28 09:23:31;;;;;;;8.43;5.10;;;;;;;25.12;40.13;93828.28;4971094;28;20754;-81
2022/08/28 09:26:03;;;;;;;11.90;5.20;;;;;;;25.18;38.94;93823.91;4971098;28;20068;-78
2022/08/28 09:28:33;;;;;;;8.13;4.43;;;;;;;25.31;38.92;93835.84;4971175;28;20113;-80
2022/08/28 09:31:33;;;;;;;7.60;4.85;;;;;;;25.42;39.27;93833.03;4970510;28;20109;-81
2022/08/28 09:34:16;;;;;;;7.30;4.60;;;;;;;25.50;38.45;93840.69;4969819;28;20046;-81
2022/08/28 09:36:42;;;;;;;6.10;4.43;;;;;;;25.47;38.90;93822.44;4954110;28;20029;-79
2022/08/28 09:39:11;;;;;;;8.93;4.32;;;;;;;25.61;38.11;93838.63;4968590;28;20031;-79
2022/08/28 09:44:29;;;;;;;11.25;4.00;;;;;;;25.31;37.65;93770.53;4970438;28;20407;-79
2022/08/28 09:46:54;;;;;;;4.70;3.63;;;;;;;25.40;36.98;93773.53;4973598;28;20029;-78
2022/08/28 09:49:28;;;;;;;10.02;4.55;;;;;;;25.79;37.44;93826.72;4954155;28;20482;-81
2022/08/28 09:51:58;;;;;;;7.85;4.30;;;;;;;25.87;39.20;93828.16;4973976;28;20076;-79
2022/08/28 09:54:40;;;;;;;6.20;4.32;;;;;;;25.91;39.59;93824.22;4970463;28;20070;-79
2022/08/28 09:57:06;;;;;;;6.28;5.05;;;;;;;25.86;38.33;93804.84;4970232;28;20027;-81
2022/08/28 09:59:31;;;;;;;8.43;4.97;;;;;;;25.91;38.75;93801.69;4968785;28;20058;-80
2022/08/28 10:02:22;;;;;;;10.65;4.65;;;;;;;25.95;37.89;93814.06;4971854;28;20154;-78
2022/08/28 10:05:00;;;;;;;8.35;5.20;;;;;;;26.05;37.35;93813.16;4969503;28;20080;-81
2022/08/28 10:08:00;;;;;;;5.80;4.82;;;;;;;25.95;38.03;93807.84;4954863;28;20186;-80
2022/08/28 10:10:37;;;;;;;9.55;5.35;;;;;;;25.90;39.40;93816.47;4969231;28;20038;-80
2022/08/28 10:13:13;;;;;;;10.23;4.78;;;;;;;25.61;36.66;93788.81;4955221;28;20027;-80
2022/08/28 10:16:01;;;;;;;5.65;4.63;;;;;;;25.49;36.66;93808.41;4970191;28;20019;-78
2022/08/28 10:18:29;;;;;;;8.88;5.22;;;;;;;25.63;37.50;93800.06;4953840;28;20414;-81
2022/08/28 10:21:17;;;;;;;6.70;5.22;;;;;;;25.63;38.43;93775.56;4955224;28;20030;-80
2022/08/28 10:23:45;;;;;;;7.10;5.07;;;;;;;25.91;36.82;93801.69;4971600;28;20023;-81
2022/08/28 10:26:22;;;;;;;7.57;4.78;;;;;;;25.86;37.03;93777.59;4970446;28;20037;-78
2022/08/28 10:29:18;;;;;;;6.63;4.45;;;;;;;26.18;36.23;93797.00;4952933;28;20026;-81
2022/08/28 10:32:15;;;;;;;7.63;5.10;;;;;;;26.24;37.81;93787.16;4954253;28;20068;-79
2022/08/28 10:34:56;;;;;;;8.77;5.00;;;;;;;26.42;37.64;93786.88;4971007;28;20502;-79
2022/08/28 10:37:42;;;;;;;5.65;4.53;;;;;;;26.37;38.26;93790.84;4952493;28;20054;-81
2022/08/28 10:40:27;;;;;;;6.43;5.07;;;;;;;26.48;37.51;93790.69;4955856;28;20030;-79
2022/08/28 10:43:10;;;;;;;10.68;4.80;;;;;;;26.54;37.05;93795.25;4973814;28;20434;-80
2022/08/28 10:45:36;;;;;;;6.30;5.30;;;;;;;26.52;35.59;93775.03;4965484;28;20113;-79
2022/08/28 10:48:16;;;;;;;9.07;5.28;;;;;;;26.73;36.01;93785.59;4973094;28;20034;-81
2022/08/28 10:51:00;;;;;;;7.32;5.25;;;;;;;26.79;34.19;93783.16;4955940;28;20363;-79
2022/08/28 10:53:33;;;;;;;6.45;4.90;;;;;;;26.85;33.53;93779.53;4965595;28;20643;-81
2022/08/28 10:56:05;;;;;;;6.85;4.15;;;;;;;26.85;34.28;93771.34;4973738;28;20027;-79
2022/08/28 10:58:35;;;;;;;8.43;5.30;;;;;;;26.97;35.05;93773.47;4956154;28;20025;-79
2022/08/28 11:01:07;;;;;;;6.65;4.05;;;;;;;26.89;35.14;93782.94;4957648;28;20129;-80
2022/08/28 11:03:40;;;;;;;5.97;4.07;;;;;;;26.94;32.55;93768.81;4971654;28;20022;-80
2022/08/28 11:06:23;;;;;;;4.75;4.07;;;;;;;26.99;35.33;93770.28;4959572;28;20986;-79
2022/08/28 11:08:55;;;;;;;4.65;4.22;;;;;;;27.00;36.27;93771.84;4972807;28;20050;-79
2022/08/28 11:11:43;;;;;;;4.32;3.80;;;;;;;27.14;34.05;93770.81;4973776;28;20491;-80
2022/08/28 11:14:25;;;;;;;7.97;4.65;;;;;;;27.17;35.97;93775.47;4971678;28;20065;-79
2022/08/28 11:16:53;;;;;;;6.25;4.35;;;;;;;27.24;33.42;93775.31;4955633;28;20061;-79
2022/08/28 11:19:38;;;;;;;8.98;4.03;;;;;;;27.28;31.98;93774.03;4973414;28;20046;-81
2022/08/28 11:22:25;;;;;;;7.28;5.10;;;;;;;27.34;35.07;93764.19;4945899;28;20038;-81
2022/08/28 11:25:00;;;;;;;8.23;4.90;;;;;;;27.44;33.92;93769.84;4973824;28;20022;-80
2022/08/28 11:27:28;;;;;;;;;;;;;;;27.38;32.75;93764.88;4970919;28;20869;-81
2022/08/28 11:30:28;;;;;;;5.63;4.22;;;;;;;27.40;33.10;93762.50;4972351;28;19969;-79
2022/08/28 11:32:57;;;;;;;7.28;4.75;;;;;;;27.28;32.78;93765.84;4974107;28;20062;-80
2022/08/28 11:35:28;;;;;;;5.18;4.28;;;;;;;27.42;33.00;93762.84;4972605;28;20321;-78
2022/08/28 11:37:55;;;;;;;6.72;4.30;;;;;;;27.31;31.85;93732.25;4972296;28;20406;-80
2022/08/28 11:40:30;;;;;;;4.63;4.15;;;;;;;27.54;32.34;93761.44;4972767;28;20037;-80
2022/08/28 11:43:14;;;;;;;5.90;4.88;;;;;;;27.53;31.92;93757.16;4972546;28;20050;-79
2022/08/28 11:45:42;;;;;;;8.90;5.38;;;;;;;27.49;31.74;93759.19;4973176;28;20037;-78
2022/08/28 11:48:27;;;;;;;6.70;4.53;;;;;;;27.44;32.50;93739.78;4972466;28;20729;-81
2022/08/28 11:50:54;;;;;;;5.28;4.18;;;;;;;27.51;34.27;93750.59;4972849;28;20078;-79